Time;durP1;ratioP1;P1;durP2;ratioP2;P2;SDS_P1;SDS_P2;PMS_P1;PMS_P2;Temp;Humidity;BMP_temperature;BMP_pressure;BME280_temperature;BME280_humidity;BME280_pressure;Samples;Min_cycle;Max_cycle;Signal;HPM_P1;HPM_P2
2022/04/08 00:01:34;;;;;;;5.47;4.97;;;;;;;13.43;100.00;97977.44;5131722;27;20190;-53
2022/04/08 00:04:01;;;;;;;9.90;5.37;;;;;;;13.42;100.00;97980.16;5131141;27;20198;-53
2022/04/08 00:06:28;;;;;;;10.60;5.90;;;;;;;13.42;100.00;97981.00;5131603;27;20194;-52
2022/04/08 00:08:55;;;;;;;6.30;5.37;;;;;;;13.37;100.00;97977.84;5131640;27;20662;-52
2022/04/08 00:11:22;;;;;;;6.00;5.37;;;;;;;13.30;100.00;97987.00;5131483;27;20204;-53
2022/04/08 00:13:52;;;;;;;7.93;5.03;;;;;;;13.20;100.00;97987.69;5131527;27;20673;-52
2022/04/08 00:16:19;;;;;;;5.37;4.37;;;;;;;13.15;100.00;97989.72;5132089;27;20669;-53
2022/04/08 00:18:47;;;;;;;6.20;4.40;;;;;;;13.05;100.00;97990.28;5131270;27;20228;-53
2022/04/08 00:21:14;;;;;;;4.83;3.80;;;;;;;13.08;100.00;97984.91;5131605;27;20185;-52
2022/04/08 00:23:42;;;;;;;4.00;3.70;;;;;;;13.04;100.00;97985.16;5131283;27;20250;-52
2022/04/08 00:26:09;;;;;;;6.73;3.97;;;;;;;13.09;100.00;97975.31;5131114;27;20234;-52
2022/04/08 00:28:36;;;;;;;9.87;4.30;;;;;;;13.03;100.00;97984.34;5131316;27;20190;-52
2022/04/08 00:31:05;;;;;;;4.73;3.67;;;;;;;13.04;100.00;97986.00;5131106;27;20198;-50
2022/04/08 00:33:32;;;;;;;9.77;3.50;;;;;;;12.98;100.00;97972.56;5130628;27;20197;-52
2022/04/08 00:35:59;;;;;;;5.57;4.23;;;;;;;13.00;100.00;97983.69;5131332;27;20728;-51
2022/04/08 00:38:26;;;;;;;4.93;3.47;;;;;;;13.01;100.00;97980.16;5131302;27;20235;-52
2022/04/08 00:40:53;;;;;;;5.10;3.80;;;;;;;12.90;100.00;97956.56;5131519;27;20197;-51
2022/04/08 00:43:20;;;;;;;3.67;3.43;;;;;;;13.01;100.00;97993.16;5131240;27;20593;-53
2022/04/08 00:45:47;;;;;;;6.03;3.70;;;;;;;12.97;100.00;97989.09;5130788;27;20190;-53
2022/04/08 00:48:15;;;;;;;5.00;4.50;;;;;;;12.93;100.00;98001.47;5131214;27;20189;-53
2022/04/08 00:50:45;;;;;;;5.90;4.23;;;;;;;12.81;100.00;98006.59;5131177;27;20687;-52
2022/04/08 00:53:12;;;;;;;4.47;4.07;;;;;;;12.82;100.00;98011.72;5130951;27;20302;-53
2022/04/08 00:55:39;;;;;;;5.47;4.03;;;;;;;12.75;100.00;98015.63;5131089;27;20202;-52
2022/04/08 00:58:07;;;;;;;7.90;4.37;;;;;;;12.81;100.00;98017.00;5130627;28;20304;-52
2022/04/08 01:00:35;;;;;;;7.20;5.27;;;;;;;12.80;100.00;98018.78;5130795;28;20196;-52
2022/04/08 01:03:03;;;;;;;7.73;5.10;;;;;;;12.79;100.00;98027.53;5130977;28;20558;-52
2022/04/08 01:05:32;;;;;;;5.80;4.67;;;;;;;12.71;100.00;98043.63;5130895;28;20588;-52
2022/04/08 01:08:00;;;;;;;8.67;5.07;;;;;;;12.69;100.00;98042.03;5130701;28;20209;-52
2022/04/08 01:10:27;;;;;;;8.67;5.20;;;;;;;12.64;100.00;98051.91;5130792;28;20297;-52
2022/04/08 01:12:54;;;;;;;8.53;4.90;;;;;;;12.63;100.00;98055.44;5130730;28;20673;-53
2022/04/08 01:15:25;;;;;;;8.57;4.93;;;;;;;12.54;100.00;98054.19;5131012;28;20654;-52
2022/04/08 01:17:52;;;;;;;9.73;5.33;;;;;;;12.56;100.00;98061.91;5130885;28;20257;-52
2022/04/08 01:20:19;;;;;;;5.17;4.30;;;;;;;12.52;100.00;98060.44;5130690;28;20197;-53
2022/04/08 01:22:48;;;;;;;4.63;4.20;;;;;;;12.38;100.00;98052.63;5130646;28;20288;-52
2022/04/08 01:25:16;;;;;;;7.43;3.80;;;;;;;12.43;100.00;98053.16;5130471;28;20208;-52
2022/04/08 01:27:43;;;;;;;4.90;3.77;;;;;;;12.42;100.00;98060.13;5130663;28;20190;-50
2022/04/08 01:30:13;;;;;;;5.17;3.90;;;;;;;12.39;100.00;98065.53;5130594;28;20210;-50
2022/04/08 01:32:40;;;;;;;4.90;3.40;;;;;;;12.42;100.00;98057.53;5130565;28;20255;-52
2022/04/08 01:35:07;;;;;;;6.40;3.70;;;;;;;12.39;100.00;98070.75;5130576;28;20216;-52
2022/04/08 01:37:34;;;;;;;3.07;2.77;;;;;;;12.45;100.00;98066.91;5130478;28;20289;-51
2022/04/08 01:40:02;;;;;;;2.97;2.70;;;;;;;12.52;100.00;98068.25;5130330;28;20284;-51
2022/04/08 01:42:30;;;;;;;3.53;2.43;;;;;;;12.57;100.00;98063.59;5130635;28;20198;-52
2022/04/08 01:44:57;;;;;;;6.20;2.50;;;;;;;12.59;99.66;98061.75;5130930;27;20201;-51
2022/04/08 01:47:24;;;;;;;2.90;2.40;;;;;;;12.62;99.00;98065.00;5134478;27;20194;-52
2022/04/08 01:49:52;;;;;;;2.33;2.23;;;;;;;12.65;98.89;98077.81;5134153;27;20198;-52
2022/04/08 01:52:19;;;;;;;4.27;3.23;;;;;;;12.67;98.90;98072.53;5134145;27;20243;-51
2022/04/08 01:54:46;;;;;;;3.47;2.60;;;;;;;12.66;98.29;98078.66;5133961;27;20201;-51
2022/04/08 01:57:12;;;;;;;3.43;2.70;;;;;;;12.71;97.69;98079.22;5134410;27;20578;-51
2022/04/08 01:59:41;;;;;;;2.50;2.30;;;;;;;12.68;97.32;98069.00;5134455;27;20719;-52
2022/04/08 02:02:08;;;;;;;3.70;2.27;;;;;;;12.76;95.76;98074.56;5134075;27;20666;-53
2022/04/08 02:04:35;;;;;;;3.03;2.67;;;;;;;12.69;96.62;98071.50;5133898;27;20194;-53
2022/04/08 02:07:06;;;;;;;2.80;2.60;;;;;;;12.71;95.18;98076.63;5133834;27;20206;-51
2022/04/08 02:09:33;;;;;;;2.67;2.37;;;;;;;12.68;93.80;98061.19;5134146;27;20665;-51
2022/04/08 02:12:00;;;;;;;2.57;2.40;;;;;;;12.70;94.10;98070.56;5133767;27;20197;-52
2022/04/08 02:14:27;;;;;;;2.47;2.23;;;;;;;12.69;93.44;98073.28;5133955;27;20414;-52
2022/04/08 02:16:56;;;;;;;5.47;2.43;;;;;;;12.66;92.32;98078.66;5133774;27;20297;-53
2022/04/08 02:19:23;;;;;;;3.47;2.47;;;;;;;12.75;91.27;98083.31;5133542;27;20222;-53
2022/04/08 02:21:50;;;;;;;3.17;2.70;;;;;;;12.74;90.83;98084.25;5133535;27;20602;-52
2022/04/08 02:24:17;;;;;;;3.93;2.20;;;;;;;12.70;90.50;98082.75;5133829;27;20197;-52
2022/04/08 02:26:44;;;;;;;3.80;2.77;;;;;;;12.76;90.32;98078.94;5133627;27;20226;-53
2022/04/08 02:29:11;;;;;;;2.73;2.43;;;;;;;12.69;90.01;98083.69;5133519;27;20186;-53
2022/04/08 02:31:38;;;;;;;5.83;2.93;;;;;;;12.62;89.61;98088.44;5133623;27;20246;-52
2022/04/08 02:34:06;;;;;;;2.73;2.40;;;;;;;12.58;89.20;98080.88;5133240;27;20576;-53
2022/04/08 02:36:33;;;;;;;3.03;2.37;;;;;;;12.73;87.96;98087.78;5133277;27;20194;-51
2022/04/08 02:39:00;;;;;;;2.60;2.40;;;;;;;12.70;87.64;98087.97;5133652;27;20615;-52
2022/04/08 02:41:27;;;;;;;2.90;2.60;;;;;;;12.71;86.79;98092.25;5133689;27;20193;-53
2022/04/08 02:43:54;;;;;;;3.43;2.60;;;;;;;12.72;86.60;98104.34;5133228;27;20198;-51
2022/04/08 02:46:21;;;;;;;2.90;2.70;;;;;;;12.73;86.09;98111.22;5133217;27;20200;-52
2022/04/08 02:48:48;;;;;;;3.23;2.50;;;;;;;12.68;86.33;98103.66;5132936;27;20186;-52
2022/04/08 02:51:17;;;;;;;2.93;2.83;;;;;;;12.66;85.46;98107.28;5133092;27;20190;-52
2022/04/08 02:53:44;;;;;;;3.17;2.40;;;;;;;12.76;84.85;98105.81;5133097;27;20201;-52
2022/04/08 02:56:11;;;;;;;2.30;2.10;;;;;;;12.77;84.26;98111.84;5132675;27;20194;-52
2022/04/08 02:58:37;;;;;;;2.50;2.40;;;;;;;12.76;84.04;98111.00;5132995;27;20217;-52
2022/04/08 03:01:04;;;;;;;2.80;2.60;;;;;;;12.75;84.05;98118.94;5132617;27;20194;-52
2022/04/08 03:03:31;;;;;;;2.57;2.37;;;;;;;12.75;83.95;98113.72;5133385;27;20280;-54
2022/04/08 03:05:59;;;;;;;3.47;2.67;;;;;;;12.67;83.47;98101.16;5133038;27;20225;-53
2022/04/08 03:08:30;;;;;;;2.10;2.00;;;;;;;12.78;83.88;98121.34;5132599;27;20246;-52
2022/04/08 03:10:57;;;;;;;3.00;2.70;;;;;;;12.78;83.98;98124.78;5132523;27;20193;-52
2022/04/08 03:13:25;;;;;;;5.73;2.90;;;;;;;12.79;83.29;98136.03;5132656;27;20232;-53
2022/04/08 03:15:52;;;;;;;2.97;2.67;;;;;;;12.80;83.64;98128.13;5132275;27;20205;-53
2022/04/08 03:18:19;;;;;;;4.67;2.50;;;;;;;12.59;83.32;98106.81;5132406;27;20220;-52
2022/04/08 03:20:46;;;;;;;2.80;2.60;;;;;;;12.76;83.57;98141.41;5132312;27;20194;-51
2022/04/08 03:23:13;;;;;;;2.33;2.23;;;;;;;12.67;84.25;98137.59;5132463;27;20259;-51
2022/04/08 03:25:41;;;;;;;3.00;2.80;;;;;;;12.59;84.48;98135.44;5132342;27;20232;-51
2022/04/08 03:28:10;;;;;;;5.03;2.57;;;;;;;12.55;84.51;98143.53;5132153;27;20200;-52
2022/04/08 03:30:37;;;;;;;2.83;2.60;;;;;;;12.56;84.45;98140.00;5132679;27;20205;-52
2022/04/08 03:33:04;;;;;;;3.37;2.90;;;;;;;12.50;84.08;98140.38;5132392;27;20633;-52
2022/04/08 03:35:31;;;;;;;3.60;3.10;;;;;;;12.46;84.52;98149.25;5132494;27;20197;-53
2022/04/08 03:37:58;;;;;;;3.23;2.87;;;;;;;12.41;84.94;98151.31;5131956;27;20285;-51
2022/04/08 03:40:25;;;;;;;3.13;2.80;;;;;;;12.25;85.20;98152.19;5104512;27;20231;-52
2022/04/08 03:42:53;;;;;;;2.80;2.60;;;;;;;12.28;84.74;98149.41;5090193;28;20219;-52
2022/04/08 03:45:20;;;;;;;4.13;3.00;;;;;;;12.29;85.91;98147.66;5090260;28;20229;-53
2022/04/08 03:47:48;;;;;;;2.40;2.30;;;;;;;12.21;87.41;98139.44;5090429;28;20218;-53
2022/04/08 03:50:15;;;;;;;3.90;2.63;;;;;;;12.35;85.42;98155.94;5103368;27;20222;-51
2022/04/08 03:52:43;;;;;;;3.43;3.00;;;;;;;12.40;85.12;98155.69;5113931;27;20225;-52
2022/04/08 03:55:11;;;;;;;2.50;2.40;;;;;;;12.43;85.51;98162.44;5119392;27;20217;-53
2022/04/08 03:57:38;;;;;;;5.07;2.40;;;;;;;12.49;84.62;98165.53;5120108;27;20282;-53
2022/04/08 04:00:09;;;;;;;2.40;2.30;;;;;;;12.52;85.08;98165.38;5118696;27;20624;-52
2022/04/08 04:02:36;;;;;;;5.07;3.07;;;;;;;12.51;83.72;98173.28;5119101;27;20213;-53
2022/04/08 04:05:03;;;;;;;4.57;3.20;;;;;;;12.53;83.41;98179.19;5118285;27;20220;-53
2022/04/08 04:07:30;;;;;;;4.40;2.80;;;;;;;12.60;83.04;98177.94;5130680;27;20587;-54
2022/04/08 04:09:59;;;;;;;2.87;2.43;;;;;;;12.62;82.30;98187.34;5130738;27;20214;-52
2022/04/08 04:12:26;;;;;;;6.53;2.97;;;;;;;12.70;81.07;98181.66;5127326;27;20752;-53
2022/04/08 04:14:54;;;;;;;3.50;2.60;;;;;;;12.76;80.34;98188.28;5099950;28;20226;-53
2022/04/08 04:17:22;;;;;;;3.97;2.57;;;;;;;12.78;79.77;98182.06;5119779;27;20214;-52
2022/04/08 04:19:49;;;;;;;5.07;2.97;;;;;;;12.89;79.06;98190.06;5119953;27;20220;-52
2022/04/08 04:22:16;;;;;;;5.30;2.90;;;;;;;13.01;78.10;98201.53;5115658;27;20335;-53
2022/04/08 04:24:43;;;;;;;4.40;2.40;;;;;;;13.05;77.54;98201.25;5118963;27;20220;-53
2022/04/08 04:27:10;;;;;;;3.77;2.70;;;;;;;13.15;76.77;98205.94;5119387;27;20849;-53
2022/04/08 04:29:37;;;;;;;3.70;3.10;;;;;;;13.33;76.65;98217.84;5118460;27;20222;-54
2022/04/08 04:32:06;;;;;;;5.43;2.83;;;;;;;13.47;74.71;98210.03;5110369;27;20223;-52
2022/04/08 04:34:37;;;;;;;4.37;3.37;;;;;;;13.67;73.20;98221.84;5110356;27;20298;-51
2022/04/08 04:37:04;;;;;;;2.80;2.60;;;;;;;13.82;71.57;98224.34;5109328;28;20198;-52
2022/04/08 04:39:31;;;;;;;5.87;2.70;;;;;;;14.04;71.40;98226.44;5109419;28;20229;-50
2022/04/08 04:41:58;;;;;;;4.23;2.90;;;;;;;14.34;69.12;98228.84;5111513;27;20202;-51
2022/04/08 04:44:27;;;;;;;4.20;2.37;;;;;;;14.89;66.87;98227.91;5110506;27;20778;-51
2022/04/08 04:46:54;;;;;;;4.90;3.00;;;;;;;16.17;61.34;98237.31;5108536;28;20194;-52
2022/04/08 04:49:21;;;;;;;3.93;2.67;;;;;;;17.77;55.72;98241.88;5109616;28;20214;-50
2022/04/08 04:51:50;;;;;;;2.73;2.53;;;;;;;19.37;49.66;98244.53;5110014;28;20301;-52
2022/04/08 04:54:17;;;;;;;4.73;2.70;;;;;;;20.57;46.07;98255.09;5110314;28;20204;-52
2022/04/08 04:56:44;;;;;;;4.38;2.47;;;;;;;21.63;43.42;98260.28;5110528;28;20577;-51
2022/04/08 04:59:11;;;;;;;3.08;2.63;;;;;;;22.53;40.94;98262.22;5110111;28;20271;-52
2022/04/08 05:01:38;;;;;;;4.07;2.90;;;;;;;22.69;39.81;98257.91;5110663;28;20573;-52
2022/04/08 05:04:05;;;;;;;4.30;2.53;;;;;;;23.78;38.51;98275.19;5110275;28;20196;-52
2022/04/08 05:06:34;;;;;;;5.97;3.05;;;;;;;24.68;36.37;98279.00;5124896;28;20209;-52
2022/04/08 05:09:04;;;;;;;4.72;2.88;;;;;;;25.04;35.83;98290.19;5130819;28;20674;-52
2022/04/08 05:11:31;;;;;;;2.78;2.58;;;;;;;26.24;34.42;98294.63;5131024;28;20201;-52
2022/04/08 05:13:59;;;;;;;5.07;2.60;;;;;;;26.88;32.40;98292.63;5130780;28;20584;-53
2022/04/08 05:16:26;;;;;;;2.95;2.55;;;;;;;26.88;31.93;98305.94;5131133;28;20198;-52
2022/04/08 05:18:53;;;;;;;7.70;2.67;;;;;;;27.35;31.73;98295.94;5130986;27;20247;-52
2022/04/08 05:21:20;;;;;;;2.88;2.65;;;;;;;27.95;31.28;98308.41;5134774;27;20189;-51
2022/04/08 05:23:46;;;;;;;2.63;2.40;;;;;;;28.04;30.35;98307.28;5134922;27;20198;-52
2022/04/08 05:26:16;;;;;;;2.50;2.30;;;;;;;28.09;30.28;98310.25;5134559;27;20232;-53
2022/04/08 05:28:43;;;;;;;3.28;2.30;;;;;;;28.41;29.63;98313.53;5134644;27;20224;-52
2022/04/08 05:31:10;;;;;;;3.47;2.25;;;;;;;28.43;29.70;98322.19;5134070;27;20194;-53
2022/04/08 05:33:37;;;;;;;2.50;2.30;;;;;;;28.64;28.99;98330.25;5115838;27;20198;-53
2022/04/08 05:36:05;;;;;;;3.70;2.50;;;;;;;29.37;28.22;98328.34;5114001;28;20209;-53
2022/04/08 05:38:32;;;;;;;3.33;3.03;;;;;;;29.75;27.80;98328.88;5113906;28;20190;-53
2022/04/08 05:40:58;;;;;;;5.50;2.97;;;;;;;30.42;27.20;98341.66;5113905;28;20683;-53
2022/04/08 05:43:27;;;;;;;4.13;2.72;;;;;;;30.07;27.23;98344.34;5123392;27;20284;-52
2022/04/08 05:45:54;;;;;;;3.47;2.50;;;;;;;29.97;27.50;98341.22;5134295;27;20208;-52
2022/04/08 05:48:21;;;;;;;2.20;2.10;;;;;;;30.02;27.24;98344.13;5134406;27;20561;-52
2022/04/08 05:50:48;;;;;;;3.30;3.00;;;;;;;29.14;28.30;98352.59;5134121;27;20194;-52
2022/04/08 05:53:14;;;;;;;4.55;2.58;;;;;;;29.21;28.45;98340.97;5134277;27;20280;-52
2022/04/08 05:55:42;;;;;;;2.85;2.65;;;;;;;28.55;28.80;98352.75;5134298;27;20270;-52
2022/04/08 05:58:09;;;;;;;2.83;2.58;;;;;;;27.75;29.58;98361.44;5133996;27;20198;-52
2022/04/08 06:00:37;;;;;;;2.58;2.45;;;;;;;28.10;29.09;98356.41;5134047;27;20221;-52
2022/04/08 06:03:04;;;;;;;4.28;2.40;;;;;;;28.82;27.93;98365.41;5133883;27;20198;-52
2022/04/08 06:05:31;;;;;;;2.55;2.35;;;;;;;28.84;28.35;98368.72;5134233;27;20740;-51
2022/04/08 06:07:58;;;;;;;5.43;3.03;;;;;;;29.25;27.52;98382.31;5134024;27;20289;-51
2022/04/08 06:10:26;;;;;;;2.83;2.63;;;;;;;29.25;26.34;98381.47;5133839;27;20200;-52
2022/04/08 06:12:54;;;;;;;2.78;2.42;;;;;;;29.54;26.24;98381.41;5133591;27;20225;-52
2022/04/08 06:15:22;;;;;;;7.43;3.28;;;;;;;29.68;26.00;98392.22;5134025;27;20225;-52
2022/04/08 06:17:50;;;;;;;2.20;2.10;;;;;;;29.11;26.76;98383.22;5133451;27;20284;-52
2022/04/08 06:20:18;;;;;;;2.40;2.30;;;;;;;29.67;25.72;98395.91;5133871;27;20214;-52
2022/04/08 06:22:47;;;;;;;3.08;2.42;;;;;;;29.70;25.71;98376.78;5133870;27;20583;-51
2022/04/08 06:25:15;;;;;;;6.15;2.25;;;;;;;29.92;25.37;98395.25;5133401;27;20247;-52
2022/04/08 06:27:44;;;;;;;5.10;2.40;;;;;;;30.18;24.92;98410.72;5133724;27;20281;-52
2022/04/08 06:30:14;;;;;;;2.30;2.20;;;;;;;30.87;24.44;98412.56;5133457;27;20198;-52
2022/04/08 06:32:43;;;;;;;4.47;2.75;;;;;;;30.72;24.59;98404.66;5128916;27;20673;-52
2022/04/08 06:35:12;;;;;;;6.57;2.40;;;;;;;31.12;24.38;98403.00;5122510;27;20205;-53
2022/04/08 06:37:39;;;;;;;3.20;2.55;;;;;;;31.43;24.25;98407.78;5121548;27;20291;-52
2022/04/08 06:40:10;;;;;;;5.03;2.70;;;;;;;31.59;23.77;98410.09;5122782;27;20214;-52
2022/04/08 06:42:38;;;;;;;4.70;2.72;;;;;;;31.37;23.71;98395.22;5118108;27;20204;-52
2022/04/08 06:45:07;;;;;;;3.00;2.08;;;;;;;31.89;23.46;98412.38;5119877;27;20224;-52
2022/04/08 06:47:34;;;;;;;3.05;2.58;;;;;;;31.70;23.49;98395.25;5112764;27;20202;-51
2022/04/08 06:50:01;;;;;;;6.05;2.60;;;;;;;31.32;24.16;98411.06;5112650;28;20610;-52
2022/04/08 06:52:29;;;;;;;2.65;2.30;;;;;;;31.85;23.39;98416.50;5112567;28;20290;-52
2022/04/08 06:54:56;;;;;;;5.53;2.53;;;;;;;31.95;23.06;98428.47;5112676;28;20594;-52
2022/04/08 06:57:23;;;;;;;2.10;1.73;;;;;;;32.03;23.02;98422.91;5112628;28;20221;-52
2022/04/08 06:59:50;;;;;;;3.85;2.10;;;;;;;31.73;23.36;98430.53;5112307;28;20232;-51
2022/04/08 07:02:16;;;;;;;2.40;2.30;;;;;;;31.58;23.23;98426.38;5112620;28;20663;-51
2022/04/08 07:04:43;;;;;;;3.28;2.00;;;;;;;32.02;22.86;98432.00;5112492;28;20194;-52
2022/04/08 07:07:10;;;;;;;3.47;2.22;;;;;;;32.56;22.20;98438.13;5112119;28;20670;-51
2022/04/08 07:09:39;;;;;;;3.17;2.40;;;;;;;32.91;21.64;98444.88;5128190;27;20201;-52
2022/04/08 07:12:06;;;;;;;2.42;1.90;;;;;;;32.65;21.91;98436.88;5130959;27;20204;-53
2022/04/08 07:14:33;;;;;;;3.72;1.80;;;;;;;32.79;21.94;98438.50;5131821;27;20579;-51
2022/04/08 07:17:00;;;;;;;4.43;2.20;;;;;;;32.46;22.11;98439.41;5132299;27;20194;-51
2022/04/08 07:19:27;;;;;;;7.85;2.13;;;;;;;32.23;22.72;98441.72;5132341;27;20280;-52
2022/04/08 07:21:53;;;;;;;3.15;1.90;;;;;;;32.65;22.20;98440.38;5132347;27;20197;-52
2022/04/08 07:24:20;;;;;;;7.00;2.38;;;;;;;32.47;22.33;98451.81;5132479;27;20285;-52
2022/04/08 07:26:49;;;;;;;3.75;2.53;;;;;;;32.26;22.65;98454.72;5132410;27;20230;-52
2022/04/08 07:29:16;;;;;;;2.58;2.15;;;;;;;32.55;22.19;98455.28;5132656;27;20198;-52
2022/04/08 07:31:42;;;;;;;2.40;2.20;;;;;;;32.96;22.30;98460.38;5132326;27;20281;-52
2022/04/08 07:34:09;;;;;;;2.92;2.58;;;;;;;32.37;22.13;98467.53;5132156;27;20197;-51
2022/04/08 07:36:36;;;;;;;2.58;2.40;;;;;;;32.57;22.21;98472.03;5132215;27;20289;-52
2022/04/08 07:39:03;;;;;;;5.68;2.85;;;;;;;32.61;22.61;98474.09;5132059;27;20197;-52
2022/04/08 07:41:30;;;;;;;2.58;2.25;;;;;;;32.45;22.54;98461.91;5132166;27;20228;-53
2022/04/08 07:43:58;;;;;;;3.40;3.08;;;;;;;33.23;21.58;98461.06;5130942;27;20200;-52
2022/04/08 07:46:25;;;;;;;2.50;1.90;;;;;;;33.95;20.86;98457.13;5131108;27;20687;-52
2022/04/08 07:48:52;;;;;;;4.22;2.33;;;;;;;34.88;20.25;98460.59;5131805;27;20198;-52
2022/04/08 07:51:19;;;;;;;2.47;2.22;;;;;;;36.47;19.29;98462.63;5132448;27;20662;-51
2022/04/08 07:53:46;;;;;;;3.00;2.53;;;;;;;37.60;17.96;98463.88;5132143;27;20189;-52
2022/04/08 07:56:13;;;;;;;5.15;2.72;;;;;;;37.37;17.84;98465.63;5132162;27;20194;-52
2022/04/08 07:58:40;;;;;;;5.35;1.85;;;;;;;37.18;18.22;98466.06;5131758;27;20288;-51
2022/04/08 08:01:09;;;;;;;3.10;2.20;;;;;;;37.23;17.58;98469.72;5131746;27;20611;-52
2022/04/08 08:03:36;;;;;;;4.18;2.42;;;;;;;37.37;17.52;98471.03;5131783;27;20201;-52
2022/04/08 08:06:04;;;;;;;2.97;2.17;;;;;;;37.43;17.38;98475.50;5131870;27;20683;-52
2022/04/08 08:08:31;;;;;;;3.28;2.22;;;;;;;36.53;18.31;98485.22;5131500;27;20193;-52
2022/04/08 08:10:58;;;;;;;3.20;2.30;;;;;;;36.64;17.96;98485.19;5131506;27;20196;-52
2022/04/08 08:13:24;;;;;;;2.60;2.13;;;;;;;36.39;18.53;98487.31;5121961;27;20185;-52
2022/04/08 08:15:51;;;;;;;4.45;3.00;;;;;;;36.78;18.04;98472.28;5111220;28;20198;-51
2022/04/08 08:18:21;;;;;;;2.70;2.50;;;;;;;36.93;17.93;98493.41;5111484;28;20226;-53
2022/04/08 08:20:49;;;;;;;7.13;2.53;;;;;;;37.74;16.96;98508.56;5110968;28;20264;-53
2022/04/08 08:23:17;;;;;;;4.90;2.40;;;;;;;38.14;16.60;98501.19;5111078;28;20673;-52
2022/04/08 08:25:44;;;;;;;4.13;2.67;;;;;;;38.53;16.82;98516.69;5110934;28;20234;-53
2022/04/08 08:28:11;;;;;;;3.30;3.00;;;;;;;39.47;15.94;98523.69;5110789;28;20217;-53
2022/04/08 08:30:39;;;;;;;3.28;2.80;;;;;;;39.90;15.95;98536.38;5110595;28;20196;-52
2022/04/08 08:33:06;;;;;;;3.63;2.75;;;;;;;39.37;15.82;98526.28;5113488;27;20205;-52
2022/04/08 08:35:35;;;;;;;2.80;2.60;;;;;;;39.47;16.31;98523.69;5110771;28;20247;-52
2022/04/08 08:38:02;;;;;;;3.40;3.10;;;;;;;39.40;16.08;98530.34;5110656;28;20193;-52
2022/04/08 08:40:32;;;;;;;4.40;3.65;;;;;;;38.74;15.67;98511.31;5110576;28;20197;-51
2022/04/08 08:43:00;;;;;;;4.68;3.05;;;;;;;37.57;17.51;98522.06;5110469;28;20190;-52
2022/04/08 08:45:32;;;;;;;2.95;2.83;;;;;;;36.87;17.37;98518.72;5111179;28;20523;-52
2022/04/08 08:48:01;;;;;;;3.40;3.15;;;;;;;37.43;16.72;98513.41;5110417;28;20196;-52
2022/04/08 08:50:29;;;;;;;3.15;2.95;;;;;;;36.07;17.79;98508.41;5110417;28;20218;-51
2022/04/08 08:52:58;;;;;;;3.97;3.13;;;;;;;35.64;18.09;98508.63;5110484;28;20201;-51
2022/04/08 08:55:26;;;;;;;3.20;2.55;;;;;;;35.35;17.88;98504.84;5109899;28;20200;-53
2022/04/08 08:57:53;;;;;;;3.47;2.90;;;;;;;35.55;17.75;98516.22;5110472;28;20201;-52
2022/04/08 09:00:23;;;;;;;5.30;3.38;;;;;;;35.23;17.90;98515.56;5111990;28;20198;-52
2022/04/08 09:02:50;;;;;;;3.05;2.70;;;;;;;34.92;18.23;98518.44;5118771;28;20194;-51
2022/04/08 09:05:20;;;;;;;3.25;3.05;;;;;;;35.37;17.88;98512.72;5110409;28;20281;-51
2022/04/08 09:07:59;;;;;;;5.47;2.40;;;;;;;35.35;17.68;98488.66;5110427;28;20201;-53
2022/04/08 09:10:32;;;;;;;3.33;3.00;;;;;;;35.46;17.74;98501.38;5110242;28;20225;-52
2022/04/08 09:13:00;;;;;;;3.67;2.70;;;;;;;36.39;17.25;98487.31;5110293;28;20194;-52
2022/04/08 09:15:27;;;;;;;3.30;2.80;;;;;;;37.38;16.65;98494.34;5110330;28;20190;-52
2022/04/08 09:17:54;;;;;;;2.70;2.50;;;;;;;37.52;16.98;98483.22;5110312;28;20194;-52
2022/04/08 09:20:21;;;;;;;3.15;2.88;;;;;;;36.38;17.82;98488.38;5110294;28;20201;-52
2022/04/08 09:22:55;;;;;;;4.55;2.67;;;;;;;35.80;17.99;98499.88;5110003;28;20212;-52
2022/04/08 09:25:26;;;;;;;6.30;3.13;;;;;;;35.00;18.50;98499.25;5110271;28;20201;-52
2022/04/08 09:27:57;;;;;;;4.50;3.50;;;;;;;34.36;18.95;98505.91;5110280;28;20217;-51
2022/04/08 09:30:24;;;;;;;4.03;3.65;;;;;;;34.01;19.32;98502.84;5110120;28;20226;-52
2022/04/08 09:32:52;;;;;;;5.53;3.13;;;;;;;33.09;19.49;98498.75;5110005;28;20675;-52
2022/04/08 09:35:20;;;;;;;5.70;2.85;;;;;;;33.13;18.71;98510.75;5109995;28;20306;-52
2022/04/08 09:37:58;;;;;;;3.25;2.72;;;;;;;33.75;18.48;98498.47;5110268;28;20759;-53
2022/04/08 09:40:27;;;;;;;2.78;2.58;;;;;;;34.89;18.03;98500.81;5110139;28;20187;-52
2022/04/08 09:42:55;;;;;;;4.90;2.88;;;;;;;35.20;17.76;98502.53;5115445;28;20218;-52
2022/04/08 09:45:28;;;;;;;2.53;2.33;;;;;;;35.70;17.10;98507.69;5121163;28;20608;-52
2022/04/08 09:47:55;;;;;;;2.45;2.25;;;;;;;35.67;16.74;98513.53;5118246;28;20205;-52
2022/04/08 09:50:22;;;;;;;5.55;2.72;;;;;;;35.97;17.08;98509.00;5118664;28;20214;-52
2022/04/08 09:52:49;;;;;;;3.03;2.72;;;;;;;35.99;16.69;98512.28;5116320;28;20189;-52
2022/04/08 09:55:18;;;;;;;2.63;2.47;;;;;;;34.94;17.05;98509.06;5119783;28;20665;-52
2022/04/08 09:57:49;;;;;;;2.20;2.10;;;;;;;33.82;17.90;98499.28;5121117;28;20186;-52
2022/04/08 10:00:17;;;;;;;2.30;2.20;;;;;;;32.13;18.94;98499.53;5117910;28;20203;-51
2022/04/08 10:02:46;;;;;;;3.00;2.60;;;;;;;30.56;19.89;98496.06;5130700;28;20202;-53
2022/04/08 10:05:13;;;;;;;3.13;2.85;;;;;;;29.12;21.04;98486.38;5130420;27;20670;-53
2022/04/08 10:07:42;;;;;;;2.42;2.20;;;;;;;28.23;22.16;98486.53;5133723;27;20705;-52
2022/04/08 10:10:17;;;;;;;4.50;2.90;;;;;;;27.63;22.98;98490.00;5122828;27;20194;-51
2022/04/08 10:13:01;;;;;;;5.63;2.60;;;;;;;26.69;24.68;98497.06;5127809;27;20199;-52
2022/04/08 10:15:33;;;;;;;7.07;2.78;;;;;;;25.96;24.79;98489.16;5134180;27;20198;-52
2022/04/08 10:18:03;;;;;;;3.58;3.28;;;;;;;25.60;25.51;98493.97;5133846;27;20193;-52
2022/04/08 10:20:30;;;;;;;3.67;2.85;;;;;;;25.29;25.44;98499.00;5133995;27;20190;-53
2022/04/08 10:23:08;;;;;;;2.63;2.50;;;;;;;25.06;25.86;98508.56;5133782;27;20591;-53
2022/04/08 10:25:40;;;;;;;6.32;2.58;;;;;;;24.63;26.68;98513.97;5133779;27;20226;-52
2022/04/08 10:28:10;;;;;;;2.60;2.40;;;;;;;24.51;26.72;98522.19;5133472;27;20194;-54
2022/04/08 10:30:44;;;;;;;4.57;2.67;;;;;;;24.51;26.68;98510.75;5125081;27;20221;-52
2022/04/08 10:33:13;;;;;;;2.60;2.30;;;;;;;24.52;27.00;98510.59;5112968;28;20277;-53
2022/04/08 10:35:52;;;;;;;2.22;2.03;;;;;;;24.43;27.23;98487.66;5112875;28;20199;-52
2022/04/08 10:38:19;;;;;;;2.78;2.58;;;;;;;24.62;27.39;98499.84;5113015;28;20586;-54
2022/04/08 10:40:54;;;;;;;3.22;2.25;;;;;;;24.47;27.41;98506.75;5112808;28;20198;-51
2022/04/08 10:43:23;;;;;;;2.15;2.05;;;;;;;24.44;27.56;98510.53;5112806;28;20197;-51
2022/04/08 10:45:56;;;;;;;3.47;2.40;;;;;;;24.27;28.22;98490.19;5112776;28;20191;-52
2022/04/08 10:48:23;;;;;;;2.65;2.45;;;;;;;24.42;28.04;98490.47;5112676;28;20195;-52
2022/04/08 10:50:50;;;;;;;2.83;2.50;;;;;;;24.51;27.45;98506.25;5112711;28;20224;-53
2022/04/08 10:53:21;;;;;;;3.15;1.98;;;;;;;24.48;27.03;98476.59;5112799;28;20277;-52
2022/04/08 10:55:50;;;;;;;4.95;3.40;;;;;;;24.52;27.18;98497.31;5112494;28;20186;-53
2022/04/08 10:58:32;;;;;;;3.47;3.22;;;;;;;24.51;27.10;98493.00;5125082;27;20204;-53
2022/04/08 11:00:59;;;;;;;3.15;2.50;;;;;;;24.50;27.22;98488.69;5133039;27;20186;-53
2022/04/08 11:03:27;;;;;;;3.10;2.90;;;;;;;24.39;27.46;98474.84;5133040;27;20229;-52
2022/04/08 11:05:54;;;;;;;2.72;2.63;;;;;;;24.48;27.45;98492.50;5132798;27;20618;-53
2022/04/08 11:08:25;;;;;;;3.60;3.30;;;;;;;24.47;27.28;98480.22;5133289;27;20194;-53
2022/04/08 11:10:57;;;;;;;3.05;2.63;;;;;;;24.56;27.39;98473.97;5132622;27;20295;-51
2022/04/08 11:13:24;;;;;;;2.80;2.60;;;;;;;24.58;27.40;98475.47;5133048;27;20198;-52
2022/04/08 11:15:53;;;;;;;2.88;2.67;;;;;;;24.58;27.40;98472.84;5132961;27;20738;-53
2022/04/08 11:18:20;;;;;;;2.33;2.22;;;;;;;24.59;27.41;98477.16;5121848;27;20580;-53
2022/04/08 11:20:49;;;;;;;2.63;2.53;;;;;;;24.34;27.41;98480.63;5114806;27;20289;-53
2022/04/08 11:23:25;;;;;;;2.75;2.45;;;;;;;24.27;27.83;98468.97;5111968;28;20252;-52
2022/04/08 11:25:53;;;;;;;3.45;2.78;;;;;;;24.40;28.02;98469.41;5111697;28;20611;-54
2022/04/08 11:28:22;;;;;;;3.35;3.05;;;;;;;24.38;27.59;98473.22;5112064;28;20267;-53
2022/04/08 11:30:57;;;;;;;3.08;2.10;;;;;;;24.37;26.52;98467.06;5116991;27;20213;-55
2022/04/08 11:33:24;;;;;;;3.33;3.13;;;;;;;24.34;26.68;98469.19;5111810;28;20205;-54
2022/04/08 11:35:57;;;;;;;3.92;3.63;;;;;;;24.32;26.40;98464.03;5114793;27;20186;-53